Terminal Aerodrome Forecast
Issued by NWS Brownsville, TX

Home | Current Version | Previous Version | Text Only | Print | Product List | Glossary On
Versions: 1 2 3 4 5 6 7 8 9 10 11 12 13 14 15 16 17 18
000
FTUS44 KBRO 310530
TAFHRL
TAF
KHRL 310530Z 3106/0106 09006KT P6SM OVC100
     FM310900 13003KT 3SM BR BKN060
     FM311300 15006KT 3SM BR FEW006 SCT009
     FM311600 16022G28KT P6SM BKN050
     FM010200 15007KT P6SM OVC050=

USA.gov is the U.S. government's official web portal to all federal, state and local government web resources and services.